Latest Coastal Weather Observations for Maroochydore

IDQ60701

Issued at 1:05 am EST Friday 31 October 2014 (issued every 10 minutes, with the page automatically refreshed every 10 minutes)

About coastal observations | Map of coastal stations | Coastal observations for QLD | Marine services | Other Formats
Station Details ID: 040861 Name: SUNSHINE COAST AIRPORT Lat: -26.60 Lon: 153.09 Height: 3.3 m
Data from the previous 72 hours. | See also: Recent months at Maroochydore
Date/Time
EST
Temp

°C
Wind Pressure Rain
since 9am
mm
Weather Cloud Vis
km
Sea
Height
m
Swell
Dir
 
Speed
knots
Gust
knots
hPa Trend Height
m
Period
s
Dir
31/01:00am 21.5 WNW 4 5 1015.4 - 0.0 - Cloudy 10 - - - -
31/12:30am 21.5 NW 4 4 1015.4 - 0.0 - Partly cloudy 10 - - - -
31/12:00am 21.5 WNW 3 4 1015.5 - 0.0 - Mostly cloudy 10 - - - -
 
Date/Time
EST
Temp

°C
Wind Pressure Rain
since 9am
mm
Weather Cloud Vis
km
Sea
Height
m
Swell
Dir
 
Speed
knots
Gust
knots
hPa Trend Height
m
Period
s
Dir
30/11:30pm 21.6 N 3 4 1015.8 - 0.0 - Cloudy 10 - - - -
30/11:00pm 21.8 NW 4 5 1016.3 - 0.0 - Partly cloudy 10 - - - -
30/10:30pm 21.9 N 6 7 1016.3 - 0.0 - Partly cloudy 10 - - - -
30/10:00pm 21.5 N 5 7 1016.5 - 0.0 - Partly cloudy 10 - - - -
30/09:30pm 21.5 N 6 9 1016.4 - 0.0 - Partly cloudy 10 - - - -
30/09:25pm 21.7 N 7 9 1016.2 - 0.0 - Partly cloudy 10 - - - -
30/09:15pm 21.8 N 6 8 1016.3 - 0.0 - Partly cloudy 10 - - - -
30/09:00pm 22.2 NNE 8 11 1016.3 - 0.0 - Partly cloudy 10 - - - -
30/08:30pm 22.6 NNE 8 10 1016.1 - 0.0 - Partly cloudy 10 - - - -
30/08:13pm 22.7 NNE 9 10 1015.9 - 0.0 - Partly cloudy 10 - - - -
30/08:02pm 22.6 NNE 8 10 1016.0 - 0.0 - Partly cloudy 10 - - - -
30/08:00pm 22.7 NNE 9 10 1016.0 - 0.0 - Partly cloudy 10 - - - -
30/07:30pm 22.7 NNE 9 11 1015.7 - 0.0 - Partly cloudy 10 - - - -
30/07:00pm 22.8 NE 8 10 1015.2 - 0.0 - Partly cloudy 10 - - - -
30/06:56pm 22.7 NE 8 10 1015.1 - 0.0 - Partly cloudy 10 - - - -
30/06:30pm 22.7 NE 9 11 1014.9 - 0.0 - Partly cloudy 10 - - - -
30/06:00pm 22.8 NE 9 12 1014.6 - 0.0 - - 10 - - - -
30/05:30pm 23.4 NE 8 12 1014.4 - 0.0 - - 10 - - - -
30/05:00pm 24.2 ENE 10 13 1014.2 - 0.0 - - 10 - - - -
30/04:30pm 24.9 ENE 10 13 1013.9 - 0.0 - - 10 - - - -
30/04:00pm 25.4 ENE 10 12 1013.9 - 0.0 - - 10 - - - -
30/03:30pm 25.6 ENE 11 14 1013.8 - 0.0 - - 10 - - - -
30/03:00pm 25.3 ENE 11 13 1013.8 - 0.0 - - 10 - - - -
30/02:30pm 26.2 ENE 11 14 1014.1 - 0.0 - - 10 - - - -
30/02:00pm 25.7 E 11 14 1014.2 - 0.0 - - 10 - - - -
30/01:30pm 25.7 E 11 14 1014.7 - 0.0 - - 10 - - - -
30/01:00pm 25.0 E 11 13 1015.1 - 0.0 - - 10 - - - -
30/12:30pm 26.0 ENE 9 12 1015.7 - 0.0 - - 10 - - - -
30/12:00pm 25.7 E 10 12 1016.1 - 0.0 - - 10 - - - -
30/11:30am 25.5 E 9 12 1016.4 - 0.0 - - 10 - - - -
30/11:00am 26.1 E 9 11 1016.8 - 0.0 - - 10 - - - -
30/10:30am 26.0 ESE 10 12 1017.2 - 0.0 - - 10 - - - -
30/10:00am 25.8 ESE 10 12 1017.3 - 0.0 - - 10 - - - -
30/09:30am 25.3 ESE 10 12 1017.6 - 0.0 - - 10 - - - -
30/09:00am 25.5 ESE 10 13 1017.8 - 0.0 - - 10 - - - -
30/08:30am 25.4 SE 10 13 1017.9 - 0.0 - - 10 - - - -
30/08:00am 24.8 SSE 10 13 1017.8 - 0.0 - Partly cloudy 10 - - - -
30/07:30am 24.0 S 10 12 1017.8 - 0.0 - Partly cloudy 10 - - - -
30/07:00am 23.6 S 7 9 1017.7 - 0.0 - Partly cloudy 10 - - - -
30/06:30am 22.0 SSW 7 9 1017.4 - 0.0 - Partly cloudy 10 - - - -
30/06:00am 21.1 SW 5 6 1017.0 - 0.0 - Cloudy 10 - - - -
30/05:50am 20.9 SW 5 6 1016.8 - 0.0 - Partly cloudy 10 - - - -
30/05:32am 20.4 SW 5 6 1016.5 - 0.0 - Partly cloudy 10 - - - -
30/05:30am 20.4 SW 5 6 1016.5 - 0.0 - Partly cloudy 10 - - - -
30/05:00am 20.3 SSW 6 8 1016.2 - 0.0 - Partly cloudy 10 - - - -
30/04:30am 19.5 SW 5 6 1015.9 - 0.0 - Partly cloudy 10 - - - -
30/04:00am 19.8 SW 5 6 1015.6 - 0.0 - Partly cloudy 10 - - - -
30/03:30am 20.5 S 5 7 1015.6 - 0.0 - Partly cloudy 10 - - - -
30/03:00am 21.4 S 7 8 1015.5 - 0.0 - Cloudy 10 - - - -
30/02:30am 20.8 SSW 4 5 1015.6 - 0.0 - Cloudy 10 - - - -
30/02:00am 20.8 SW 5 6 1015.6 - 0.0 - Cloudy 10 - - - -
30/01:30am 21.2 SW 5 7 1015.7 - 0.0 - Cloudy 10 - - - -
30/01:00am 21.5 S 7 8 1015.8 - 0.0 - Cloudy 10 - - - -
30/12:30am 21.0 S 7 8 1015.9 - 0.0 - - 10 - - - -
30/12:00am 22.1 SSE 7 11 1016.4 - 0.0 - Mostly cloudy 10 - - - -
 
Date/Time
EST
Temp

°C
Wind Pressure Rain
since 9am
mm
Weather Cloud Vis
km
Sea
Height
m
Swell
Dir
 
Speed
knots
Gust
knots
hPa Trend Height
m
Period
s
Dir
29/11:30pm 22.1 SSE 9 11 1016.6 - 0.0 - Partly cloudy 10 - - - -
29/11:00pm 22.2 SE 10 13 1016.8 - 0.0 - Partly cloudy 10 - - - -
29/10:30pm 22.5 SE 10 13 1016.9 - 0.0 - Partly cloudy 10 - - - -
29/10:00pm 22.5 SE 11 14 1016.9 - 0.0 - Partly cloudy 10 - - - -
29/09:30pm 22.7 SE 11 14 1016.9 - 0.0 - Partly cloudy 10 - - - -
29/09:12pm 22.8 SE 11 16 1016.9 - 0.0 - Partly cloudy 10 - - - -
29/09:00pm 22.9 SE 11 14 1016.8 - 0.0 - Cloudy 10 - - - -
29/08:51pm 22.8 SE 11 14 1016.8 - 0.0 - Partly cloudy 10 - - - -
29/08:30pm 22.9 SE 10 13 1016.7 - 0.0 - Partly cloudy 10 - - - -
29/08:00pm 23.0 SE 9 13 1016.4 - 0.0 - Cloudy 10 - - - -
29/07:30pm 23.0 SE 9 12 1016.2 - 0.0 - Partly cloudy 10 - - - -
29/07:00pm 23.1 SE 10 13 1016.0 - 0.0 - Partly cloudy 10 - - - -
29/06:30pm 23.2 ESE 10 14 1015.7 - 0.0 - Partly cloudy 10 - - - -
29/06:00pm 23.0 SE 11 13 1015.4 - 0.0 - Cloudy 10 - - - -
29/05:30pm 23.3 SE 12 17 1015.0 - 0.0 - Partly cloudy 10 - - - -
29/05:00pm 23.9 SE 12 16 1014.7 - 0.0 - Partly cloudy 10 - - - -
29/04:30pm 24.0 SE 14 19 1014.1 - 0.0 - Partly cloudy 10 - - - -
29/04:00pm 24.6 SE 14 18 1013.9 - 0.0 - Partly cloudy 10 - - - -
29/03:30pm 25.4 SE 14 18 1013.8 - 0.0 - - 10 - - - -
29/03:00pm 25.8 SE 15 19 1013.7 - 0.0 - - 10 - - - -
29/02:30pm 25.8 SE 16 21 1013.6 - 0.0 - - 10 - - - -
29/02:00pm 25.9 SE 15 21 1013.6 - 0.0 - - 10 - - - -
29/01:30pm 26.0 SE 16 21 1013.7 - 0.0 - - 10 - - - -
29/01:00pm 26.0 SE 14 19 1014.0 - 0.0 - - 10 - - - -
29/12:30pm 26.3 ESE 13 17 1014.1 - 0.0 - - 10 - - - -
29/12:00pm 26.0 ESE 13 16 1014.3 - 0.0 - - 10 - - - -
29/11:30am 25.7 ESE 12 15 1014.6 - 0.0 - - 10 - - - -
29/11:00am 25.7 ESE 11 14 1014.8 - 0.0 - - 10 - - - -
29/10:30am 25.8 ESE 12 16 1015.0 - 0.0 - - 10 - - - -
29/10:00am 26.3 SE 11 14 1014.8 - 0.0 - - 10 - - - -
29/09:30am 25.7 ESE 10 13 1014.8 - 0.0 - - 10 - - - -
29/09:03am 25.2 ESE 11 13 1014.8 - 0.0 - Partly cloudy 10 - - - -
29/09:00am 24.8 ESE 10 14 1014.7 - 0.2 - Mostly clear 10 - - - -
29/08:30am 25.2 ESE 11 15 1014.6 - 0.2 - Cloudy 10 - - - -
29/08:00am 24.3 SSE 10 13 1014.4 - 0.2 - Partly cloudy 10 - - - -
29/07:30am 22.2 S 6 8 1014.2 - 0.2 - Partly cloudy 10 - - - -
29/07:00am 21.1 S 3 4 1014.0 - 0.2 - Cloudy 10 - - - -
29/06:53am 20.7 S 3 5 1013.9 - 0.2 - Partly cloudy 9 - - - -
29/06:30am 20.6 SW 4 6 1013.5 - 0.2 - Partly cloudy 1 - - - -
29/06:00am 20.1 CALM 0 0 1013.2 - 0.2 - Cloudy 0.1 - - - -
29/05:30am 19.4 CALM 0 0 1012.7 - 0.2 - Cloudy 0.3 - - - -
29/05:00am 17.8 CALM 0 0 1012.5 - 0.2 - Cloudy 0.1 - - - -
29/04:30am 17.1 CALM 0 0 1012.1 - 0.2 - Cloudy 0.1 - - - -
29/04:00am 17.6 CALM 0 0 1011.7 - 0.2 - Cloudy 0.1 - - - -
29/03:30am 17.6 CALM 0 0 1011.5 - 0.2 - Partly cloudy 0.2 - - - -
29/03:03am 17.1 CALM 0 0 1011.3 - 0.2 - Partly cloudy 0.1 - - - -
29/03:00am 17.1 CALM 0 0 1011.2 - 0.2 - Partly cloudy 0.1 - - - -
29/02:30am 18.0 CALM 0 0 1011.3 - 0.2 - - 0.3 - - - -
29/02:00am 17.4 N 3 5 1011.2 - 0.2 - Partly cloudy 0.2 - - - -
29/01:30am 18.0 CALM 0 0 1011.3 - 0.2 - - 0.2 - - - -
29/01:00am 19.0 WSW 3 4 1011.3 - 0.2 - - 0.2 - - - -
29/12:30am 19.8 WSW 4 4 1011.5 - 0.2 - - 4 - - - -
29/12:16am 19.9 W 4 4 1011.6 - 0.2 - - 6 - - - -
29/12:01am 20.4 W 5 5 1011.8 - 0.2 - Partly cloudy 9 - - - -
29/12:00am 20.4 W 5 5 1011.8 - 0.2 - Mostly clear 9 - - - -
 
Date/Time
EST
Temp

°C
Wind Pressure Rain
since 9am
mm
Weather Cloud Vis
km
Sea
Height
m
Swell
Dir
 
Speed
knots
Gust
knots
hPa Trend Height
m
Period
s
Dir
28/11:45pm 20.1 WNW 4 6 1012.0 - 0.2 - Partly cloudy 7 - - - -
28/11:30pm 20.0 NW 4 5 1012.2 - 0.2 - Partly cloudy 6 - - - -
28/11:22pm 19.5 NW 5 5 1012.3 - 0.2 - Partly cloudy 6 - - - -
28/11:00pm 19.1 N 4 5 1012.1 - 0.2 - - 5 - - - -
28/10:34pm 19.1 N 3 5 1012.0 - 0.2 - - 6 - - - -
28/10:30pm 19.1 S 1 5 1011.9 - 0.2 - - 7 - - - -
28/10:00pm 19.6 CALM 0 0 1011.7 - 0.2 - - 7 - - - -
28/09:30pm 21.4 S 2 5 1011.5 - 0.2 - - 10 - - - -
28/09:00pm 22.5 S 6 7 1011.4 - 0.2 - - 10 - - - -
28/08:30pm 22.3 S 5 7 1011.4 - 0.2 - - 10 - - - -
28/08:00pm 22.2 SSE 5 6 1011.3 - 0.2 - - 10 - - - -
28/07:30pm 22.7 SSE 4 5 1011.3 - 0.2 - - 10 - - - -
28/07:00pm 23.0 SE 6 7 1010.6 - 0.2 - - 10 - - - -
28/06:30pm 23.3 SE 7 8 1010.1 - 0.2 - - 10 - - - -
28/06:00pm 23.6 SSE 8 11 1009.5 - 0.2 - - 10 - - - -
28/05:30pm 24.0 SE 7 9 1009.3 - 0.2 - - 10 - - - -
28/05:00pm 24.4 SSE 7 9 1009.1 - 0.2 - - 10 - - - -
28/04:30pm 25.3 ESE 8 10 1009.0 - 0.2 - - 10 - - - -
28/04:00pm 25.8 SE 9 11 1009.1 - 0.2 - - 10 - - - -
28/03:30pm 26.0 SE 9 13 1009.2 - 0.2 - - 10 - - - -
28/03:00pm 26.1 ESE 9 11 1008.8 - 0.2 - - 10 - - - -
28/02:30pm 25.7 SE 9 11 1009.3 - 0.2 - - 10 - - - -
28/02:00pm 26.1 SE 10 15 1009.3 - 0.2 - - 10 - - - -
28/01:30pm 25.6 SE 8 10 1010.0 - 0.2 - - 10 - - - -
28/01:00pm 28.3 ENE 9 12 1010.0 - 0.2 - - 10 - - - -
28/12:30pm 28.6 ENE 9 11 1010.3 - 0.2 - - 10 - - - -
28/12:00pm 28.8 NE 13 17 1010.1 - 0.2 - - 10 - - - -
28/11:30am 30.2 NNE 15 19 1010.0 - 0.2 - - 10 - - - -
28/11:00am 27.7 ENE 16 19 1010.3 - 0.2 - - 10 - - - -
28/10:30am 28.6 NNE 17 22 1010.1 - 0.2 - - 10 - - - -
28/10:00am 26.9 NNE 17 20 1010.4 - 0.2 - - 10 - - - -
28/09:30am 26.9 NNE 13 18 1010.7 - 0.2 - - 10 - - - -
28/09:00am 28.4 N 11 15 1010.8 - 1.0 - - 10 - - - -
28/08:30am 27.2 NNE 11 14 1010.9 - 1.0 - - 10 - - - -
28/08:00am 27.9 N 9 13 1010.8 - 1.0 - - 10 - - - -
28/07:30am 26.6 N 9 11 1010.6 - 1.0 - - 10 - - - -
28/07:00am 25.5 N 7 11 1010.5 - 1.0 - - 10 - - - -
28/06:30am 24.2 N 6 10 1010.2 - 1.0 - - 10 - - - -
28/06:00am 22.4 NNW 5 8 1009.8 - 1.0 - - 10 - - - -
28/05:30am 21.3 NW 5 6 1009.6 - 1.0 - - 10 - - - -
28/05:00am 21.1 W 5 7 1009.0 - 1.0 - - 10 - - - -
28/04:30am 22.0 W 6 8 1008.9 - 1.0 - - 10 - - - -
28/04:00am 22.0 NW 8 12 1008.7 - 1.0 - - 10 - - - -
28/03:30am 22.4 NW 10 14 1008.8 - 1.0 - - 10 - - - -
28/03:00am 22.5 NW 14 19 1008.5 - 1.0 - - 10 - - - -
28/02:30am 21.4 NNW 7 11 1008.6 - 1.0 - - 10 - - - -
28/02:00am 22.1 N 6 11 1008.9 - 1.0 - - 10 - - - -
28/01:30am 22.6 N 8 12 1009.2 - 1.0 - - 10 - - - -

Other Formats:

Comma delimited format used in spreadsheet applications
http://www.bom.gov.au/fwo/IDQ60701/IDQ60701.94569.axf

JavaScript Object Notation format (JSON) in row-major order
http://www.bom.gov.au/fwo/IDQ60701/IDQ60701.94569.json